Aérodrome :
LOGIN :

S'inscrire | Disclaimer

   EN    FR    IT 

 










Légende :    VFR   VFR Marginal   IFR   IFR Intensif   IFR Très Intensif
Visi : 
Plafond : 
>= 8 km
>= 3000ft
5 à 8 km
1000 à 3000 ft
1500m à 5 km
500 à 1000 ft
800 à 1500m
200 à 500 ft
< 800m
< 200 ft
Symboles :   Orages  Brouillard  Fortes neiges  Fortes précipitations  Vent > 20 kt
SIGMETs :   Divers  Orages  Givrage  Turbulence  Onde Orograph.  Cendres Volcan.







- Altitude de l'aérodrome : 909 ft
- Code IATA : KSF


EDVK - Kassel Calden

DERNIER METAR :
  • 231120Z 31011KT 9999 SCT026 SCT043 BKN068 13/08 Q1024

METARs EXPIRÉS :
  • 231050Z 29012KT 9999 SCT020 SCT044 OVC072 12/07 Q1024 RERA
  • 231020Z 31017KT 9999 RA SCT020 BKN030 OVC070 12/08 Q1024
  • 230950Z 31014KT 9999 FEW007 BKN012 OVC020 12/09 Q1024
  • 230920Z 29015KT 9999 FEW008 OVC011 10/08 Q1024
  • 230850Z 30013KT 9999 -RA SCT009 OVC011 10/09 Q1024

TAF TAF EDVK
Valide du 23 à 12h jusqu'au 23 à 21h UTC


231100Z 2312/2321 30012KT 9999 BKN030
PROB30
TEMPO 2312/2317 31015G25KT
BECMG 2317/2319 28007KT
Pas de NOTAMs connus pour ce terrain.



MET'MAP, la Météo Aéronautique d'un coup d'oeil ! - Copyright ORBIFLY Décembre 2007 - Disclaimer

ORBIFLY MET'MAP TEAM :

Programmation & Développement : Alexandra Zaïnal
Conception & Développement : Baudouin d'Aumeries
Co-Programmation & Développement : Marc-Olivier Méhu
Soutien technique & logistique : Manuel Goepfert

Contact : metmap@orbifly.com




SOURCES & CREDITS :

   NOAA